Time;durP1;ratioP1;P1;durP2;ratioP2;P2;SDS_P1;SDS_P2;PMS_P1;PMS_P2;Temp;Humidity;BMP_temperature;BMP_pressure;BME280_temperature;BME280_humidity;BME280_pressure;Samples;Min_cycle;Max_cycle;Signal;HPM_P1;HPM_P2
2022/11/27 00:02:16;;;;;;;37.47;20.43;;;1.10;99.90;;;;;;7598019;19;20025;-72
2022/11/27 00:04:49;;;;;;;33.90;19.50;;;0.90;99.90;;;;;;7602345;19;20023;-72
2022/11/27 00:07:21;;;;;;;35.65;19.50;;;0.90;99.90;;;;;;7586489;19;20106;-72
2022/11/27 00:09:53;;;;;;;31.15;16.83;;;0.90;99.90;;;;;;7590789;19;21017;-72
2022/11/27 00:12:25;;;;;;;34.97;18.25;;;0.90;99.90;;;;;;7594339;19;20018;-71
2022/11/27 00:14:57;;;;;;;38.17;19.05;;;0.90;99.90;;;;;;7602274;19;20022;-71
2022/11/27 00:17:29;;;;;;;28.55;17.00;;;0.90;99.90;;;;;;7594644;19;20018;-70
2022/11/27 00:20:02;;;;;;;27.52;15.95;;;0.90;99.90;;;;;;7596507;19;20943;-71
2022/11/27 00:22:34;;;;;;;28.77;16.17;;;0.90;99.90;;;;;;7598158;19;20022;-71
2022/11/27 00:25:06;;;;;;;33.50;17.77;;;0.90;99.90;;;;;;7597145;19;20025;-73
2022/11/27 00:27:38;;;;;;;29.27;17.35;;;0.90;99.90;;;;;;7596446;19;20019;-71
2022/11/27 00:30:12;;;;;;;30.40;17.27;;;0.80;99.90;;;;;;7589585;19;20028;-71
2022/11/27 00:32:44;;;;;;;30.58;17.33;;;0.70;99.90;;;;;;7597396;19;20102;-71
2022/11/27 00:35:16;;;;;;;27.35;15.05;;;0.70;99.90;;;;;;7597796;19;20019;-71
2022/11/27 00:37:48;;;;;;;29.25;16.77;;;0.70;99.90;;;;;;7580447;19;20018;-73
2022/11/27 00:40:20;;;;;;;33.55;17.27;;;0.70;99.90;;;;;;7566930;19;20033;-74
2022/11/27 00:42:53;;;;;;;35.05;17.42;;;0.70;99.90;;;;;;7591133;19;20018;-73
2022/11/27 00:45:25;;;;;;;24.15;14.75;;;0.60;99.90;;;;;;7590885;19;20052;-73
2022/11/27 00:47:57;;;;;;;27.75;15.50;;;0.60;99.90;;;;;;7598349;19;20023;-73
2022/11/27 00:50:30;;;;;;;23.55;13.93;;;0.70;99.90;;;;;;7592228;19;20093;-73
2022/11/27 00:53:02;;;;;;;;;;;0.70;99.90;;;;;;7602364;19;20010;-71
2022/11/27 00:55:35;;;;;;;25.08;14.27;;;0.70;99.90;;;;;;7590509;19;19926;-72
2022/11/27 00:58:07;;;;;;;26.67;14.02;;;0.80;99.90;;;;;;7593363;19;20478;-72
2022/11/27 01:00:39;;;;;;;25.25;14.20;;;0.90;99.90;;;;;;7583447;19;20842;-72
2022/11/27 01:03:11;;;;;;;25.75;14.65;;;0.90;99.90;;;;;;7588604;19;20086;-71
2022/11/27 01:05:43;;;;;;;26.67;14.60;;;0.90;99.90;;;;;;7580637;19;20019;-71
2022/11/27 01:08:16;;;;;;;25.38;14.77;;;0.80;99.90;;;;;;7590864;19;20026;-71
2022/11/27 01:10:53;;;;;;;24.77;13.90;;;0.80;99.90;;;;;;7541890;19;20014;-74
2022/11/27 01:13:29;;;;;;;25.40;14.82;;;0.80;99.90;;;;;;7558567;19;20109;-73
2022/11/27 01:16:07;;;;;;;21.58;13.90;;;0.70;99.90;;;;;;7579820;19;20011;-71
2022/11/27 01:18:41;;;;;;;24.77;14.63;;;0.70;99.90;;;;;;7567241;19;20018;-73
2022/11/27 01:21:17;;;;;;;18.35;11.80;;;0.70;99.90;;;;;;7591312;19;20093;-73
2022/11/27 01:23:49;;;;;;;22.63;12.93;;;0.80;99.90;;;;;;7611406;19;20029;-73
2022/11/27 01:26:22;;;;;;;22.70;13.10;;;0.80;99.90;;;;;;7611547;19;20023;-73
2022/11/27 01:28:55;;;;;;;26.40;13.70;;;0.80;99.90;;;;;;7605366;19;20022;-73
2022/11/27 01:31:30;;;;;;;29.70;14.10;;;0.70;99.90;;;;;;7612454;19;20361;-73
2022/11/27 01:34:07;;;;;;;24.85;13.90;;;0.70;99.90;;;;;;7603230;19;20137;-73
2022/11/27 01:36:40;;;;;;;23.40;11.38;;;0.70;99.90;;;;;;7611160;19;20025;-74
2022/11/27 01:39:18;;;;;;;27.27;15.90;;;0.70;99.90;;;;;;7602923;19;20951;-71
2022/11/27 01:41:50;;;;;;;23.17;13.27;;;0.70;99.90;;;;;;7589888;19;20022;-73
2022/11/27 01:44:22;;;;;;;22.33;12.75;;;0.60;99.90;;;;;;7587572;19;20018;-74
2022/11/27 01:47:04;;;;;;;20.25;13.00;;;0.60;99.90;;;;;;7573721;19;20014;-74
2022/11/27 01:49:47;;;;;;;24.83;14.13;;;0.50;99.90;;;;;;7586409;19;20046;-73
2022/11/27 01:52:30;;;;;;;21.35;12.98;;;0.50;99.90;;;;;;7606865;19;20037;-73
2022/11/27 01:55:11;;;;;;;20.60;12.55;;;0.50;99.90;;;;;;7598173;19;20760;-73
2022/11/27 01:57:48;;;;;;;22.73;12.05;;;0.50;99.90;;;;;;7601108;19;20011;-72
2022/11/27 02:00:21;;;;;;;18.83;11.90;;;0.50;99.90;;;;;;7590439;19;20014;-73
2022/11/27 02:02:53;;;;;;;21.80;12.85;;;0.50;99.90;;;;;;7585461;19;20049;-72
2022/11/27 02:05:27;;;;;;;16.88;10.95;;;0.50;99.90;;;;;;7601739;19;20936;-72
2022/11/27 02:08:04;;;;;;;16.00;9.73;;;0.50;99.90;;;;;;7604787;19;20019;-73
2022/11/27 02:11:02;;;;;;;15.45;10.43;;;0.50;99.90;;;;;;7602165;19;20536;-72
2022/11/27 02:13:42;;;;;;;16.58;9.77;;;0.50;99.90;;;;;;7601966;19;20029;-72
2022/11/27 02:16:32;;;;;;;15.98;10.05;;;0.40;99.90;;;;;;7617485;19;20044;-72
2022/11/27 02:19:42;;;;;;;18.17;11.75;;;0.50;99.90;;;;;;7607420;19;20042;-71
2022/11/27 02:22:45;;;;;;;18.95;11.13;;;0.40;99.90;;;;;;7602762;19;20041;-72
2022/11/27 02:25:59;;;;;;;19.92;11.55;;;0.30;99.90;;;;;;7613175;19;20070;-73
2022/11/27 02:28:31;;;;;;;;;;;0.20;99.90;;;;;;7596818;19;20090;-72
2022/11/27 02:31:15;;;;;;;19.70;11.40;;;0.20;99.90;;;;;;7603437;19;19929;-72
2022/11/27 02:33:52;;;;;;;19.63;10.57;;;0.20;99.90;;;;;;7610781;19;20025;-72
2022/11/27 02:36:32;;;;;;;19.42;10.88;;;0.20;99.90;;;;;;7599007;19;20014;-73
2022/11/27 02:39:13;;;;;;;19.50;10.57;;;0.20;99.90;;;;;;7607971;19;20022;-72
2022/11/27 02:42:03;;;;;;;21.58;11.13;;;0.20;99.90;;;;;;7590153;19;20026;-73
2022/11/27 02:44:43;;;;;;;15.55;9.40;;;0.20;99.90;;;;;;7599627;19;20052;-73
2022/11/27 02:47:16;;;;;;;14.90;9.60;;;0.20;99.90;;;;;;7611952;19;20510;-71
2022/11/27 02:49:51;;;;;;;17.60;8.23;;;0.20;99.90;;;;;;7604210;19;20014;-72
2022/11/27 02:52:27;;;;;;;17.27;9.95;;;0.20;99.90;;;;;;7609731;19;20014;-72
2022/11/27 02:55:03;;;;;;;15.55;9.73;;;0.00;99.90;;;;;;7605015;19;20010;-73
2022/11/27 02:57:38;;;;;;;18.95;9.18;;;0.00;99.90;;;;;;7597725;19;20030;-73
2022/11/27 03:00:11;;;;;;;15.05;9.07;;;0.10;99.90;;;;;;7578106;19;20060;-72
2022/11/27 03:02:49;;;;;;;16.58;8.80;;;0.10;99.90;;;;;;7594546;19;20810;-73
2022/11/27 03:05:25;;;;;;;16.65;9.65;;;0.10;99.90;;;;;;7608074;19;20019;-73
2022/11/27 03:08:12;;;;;;;18.30;10.25;;;0.10;99.90;;;;;;7610291;19;20018;-72
2022/11/27 03:10:56;;;;;;;14.98;9.25;;;0.00;99.90;;;;;;7600575;19;20033;-72
2022/11/27 03:13:31;;;;;;;16.48;10.18;;;-0.10;99.90;;;;;;7613332;19;21257;-72
2022/11/27 03:16:15;;;;;;;14.68;9.40;;;-0.10;99.90;;;;;;7589692;19;20026;-72
2022/11/27 03:19:02;;;;;;;16.42;8.95;;;-0.10;99.90;;;;;;7603200;19;20622;-72
2022/11/27 03:21:38;;;;;;;17.90;9.18;;;-0.10;99.90;;;;;;7595111;19;20041;-73
2022/11/27 03:24:11;;;;;;;16.77;9.45;;;0.00;99.90;;;;;;7606878;19;20026;-73
2022/11/27 03:26:43;;;;;;;18.67;10.10;;;0.00;99.90;;;;;;7603394;19;20018;-73
2022/11/27 03:29:29;;;;;;;16.50;9.55;;;-0.10;99.90;;;;;;7593868;19;20017;-73
2022/11/27 03:32:03;;;;;;;16.48;9.02;;;-0.10;99.90;;;;;;7598659;19;20018;-71
2022/11/27 03:34:35;;;;;;;14.02;9.23;;;-0.10;99.90;;;;;;7606206;19;20025;-72
2022/11/27 03:37:07;;;;;;;14.27;8.73;;;-0.10;99.90;;;;;;7610822;19;20029;-71
2022/11/27 03:39:39;;;;;;;19.17;9.25;;;-0.10;99.90;;;;;;7609432;19;20042;-72
2022/11/27 03:42:21;;;;;;;17.35;9.85;;;-0.10;99.90;;;;;;7600018;19;20292;-72
2022/11/27 03:45:12;;;;;;;15.25;8.43;;;-0.20;99.90;;;;;;7598747;19;20382;-72
2022/11/27 03:47:56;;;;;;;15.30;8.93;;;-0.20;99.90;;;;;;7605597;19;20502;-73
2022/11/27 03:50:59;;;;;;;18.60;8.60;;;-0.20;99.90;;;;;;7594093;19;20018;-73
2022/11/27 03:53:43;;;;;;;16.65;8.70;;;-0.20;99.90;;;;;;7604959;19;20014;-71
2022/11/27 03:56:35;;;;;;;14.88;8.73;;;-0.30;99.90;;;;;;7587115;19;20026;-70
2022/11/27 03:59:27;;;;;;;16.92;8.60;;;-0.30;99.90;;;;;;7568468;19;20426;-72
2022/11/27 04:01:59;;;;;;;16.30;9.85;;;-0.30;99.90;;;;;;7605967;19;20549;-71
2022/11/27 04:04:31;;;;;;;13.88;8.30;;;-0.30;99.90;;;;;;7619254;19;20018;-71
2022/11/27 04:07:03;;;;;;;14.63;9.18;;;-0.30;99.90;;;;;;7619629;19;20007;-71
2022/11/27 04:09:35;;;;;;;15.77;9.48;;;-0.30;99.90;;;;;;7596600;19;20018;-71
2022/11/27 04:12:07;;;;;;;17.63;10.10;;;-0.30;99.90;;;;;;7608585;19;20034;-71
2022/11/27 04:14:39;;;;;;;14.75;9.05;;;-0.30;99.90;;;;;;7618197;19;20022;-72
2022/11/27 04:17:12;;;;;;;17.63;10.30;;;-0.30;99.90;;;;;;7563908;19;20026;-70
2022/11/27 04:19:43;;;;;;;14.95;8.82;;;-0.30;99.90;;;;;;7570740;19;20018;-73
2022/11/27 04:22:15;;;;;;;16.42;9.85;;;-0.30;99.90;;;;;;7566753;19;20018;-71
2022/11/27 04:24:48;;;;;;;16.33;9.32;;;-0.40;99.90;;;;;;7548362;19;20060;-73
2022/11/27 04:27:20;;;;;;;15.40;9.70;;;-0.30;99.90;;;;;;7569351;19;20023;-74
2022/11/27 04:29:52;;;;;;;17.73;10.15;;;-0.20;99.90;;;;;;7580941;19;20033;-73
2022/11/27 04:32:24;;;;;;;16.48;9.15;;;-0.20;99.90;;;;;;7567478;19;20042;-73
2022/11/27 04:34:56;;;;;;;19.58;9.82;;;-0.30;99.90;;;;;;7585385;19;21300;-74
2022/11/27 04:37:28;;;;;;;21.15;12.02;;;-0.30;99.90;;;;;;7581831;19;20059;-73
2022/11/27 04:40:00;;;;;;;19.08;10.73;;;-0.20;99.90;;;;;;7597457;19;20030;-73
2022/11/27 04:42:33;;;;;;;20.95;10.75;;;-0.20;99.90;;;;;;7573923;19;20010;-74
2022/11/27 04:45:05;;;;;;;21.10;9.95;;;-0.30;99.90;;;;;;7597113;19;21086;-73
2022/11/27 04:47:37;;;;;;;17.37;10.47;;;-0.30;99.90;;;;;;7608514;19;20085;-73
2022/11/27 04:50:09;;;;;;;19.13;10.13;;;-0.30;99.90;;;;;;7616641;19;21804;-74
2022/11/27 04:52:42;;;;;;;20.05;10.15;;;-0.30;99.90;;;;;;7595527;19;20023;-73
2022/11/27 04:55:14;;;;;;;17.48;10.18;;;-0.30;99.90;;;;;;7598756;19;20029;-73
2022/11/27 04:57:46;;;;;;;21.27;12.05;;;-0.30;99.90;;;;;;7608742;19;20015;-73
2022/11/27 05:00:18;;;;;;;26.42;11.80;;;-0.30;99.90;;;;;;7596949;19;20114;-73
2022/11/27 05:02:50;;;;;;;19.27;10.77;;;-0.30;99.90;;;;;;7604414;19;20010;-74
2022/11/27 05:05:22;;;;;;;16.08;10.02;;;-0.30;99.90;;;;;;7592837;19;20842;-71
2022/11/27 05:07:55;;;;;;;21.88;11.65;;;-0.30;99.90;;;;;;7599637;19;20868;-73
2022/11/27 05:10:27;;;;;;;17.50;9.75;;;-0.30;99.90;;;;;;7601430;19;21688;-71
2022/11/27 05:12:59;;;;;;;17.65;10.90;;;-0.30;99.90;;;;;;7611725;19;20043;-73
2022/11/27 05:15:31;;;;;;;16.73;9.50;;;-0.40;99.90;;;;;;7618581;19;20114;-73
2022/11/27 05:18:03;;;;;;;15.68;10.52;;;-0.30;99.90;;;;;;7601914;19;20014;-74
2022/11/27 05:20:35;;;;;;;20.17;10.32;;;-0.40;99.90;;;;;;7606726;19;21107;-74
2022/11/27 05:23:07;;;;;;;16.50;9.30;;;-0.40;99.90;;;;;;7603315;19;20022;-74
2022/11/27 05:25:40;;;;;;;15.57;9.70;;;-0.50;99.90;;;;;;7577132;19;20029;-73
2022/11/27 05:28:12;;;;;;;23.23;12.50;;;-0.50;99.90;;;;;;7598421;19;20387;-74
2022/11/27 05:30:45;;;;;;;14.85;9.30;;;-0.50;99.90;;;;;;7608211;19;20078;-73
2022/11/27 05:33:18;;;;;;;16.58;10.00;;;-0.50;99.90;;;;;;7612106;19;20121;-74
2022/11/27 05:35:50;;;;;;;18.05;10.38;;;-0.50;99.90;;;;;;7601955;19;20023;-74
2022/11/27 05:38:22;;;;;;;17.52;10.30;;;-0.40;99.90;;;;;;7587247;19;20985;-73
2022/11/27 05:40:54;;;;;;;19.85;11.10;;;-0.40;99.90;;;;;;7584940;19;20022;-73
2022/11/27 05:43:26;;;;;;;20.27;12.02;;;-0.50;99.90;;;;;;7600081;19;20924;-73
2022/11/27 05:45:58;;;;;;;21.65;11.50;;;-0.60;99.90;;;;;;7613568;19;20114;-73
2022/11/27 05:48:30;;;;;;;18.00;10.80;;;-0.60;99.90;;;;;;7593378;19;20019;-73
2022/11/27 05:51:03;;;;;;;23.42;13.18;;;-0.70;99.90;;;;;;7599614;19;20102;-73
2022/11/27 05:53:36;;;;;;;20.67;10.77;;;-0.60;99.90;;;;;;7602500;19;20022;-73
2022/11/27 05:56:10;;;;;;;16.67;10.02;;;-0.60;99.90;;;;;;7602121;19;20014;-73
2022/11/27 05:58:45;;;;;;;16.45;10.35;;;-0.50;99.90;;;;;;7603286;19;20078;-73
2022/11/27 06:01:18;;;;;;;17.77;10.48;;;-0.50;99.90;;;;;;7599048;19;20027;-73
2022/11/27 06:03:50;;;;;;;17.38;10.02;;;-0.50;99.90;;;;;;7601746;19;20478;-73
2022/11/27 06:06:22;;;;;;;14.98;9.25;;;-0.60;99.90;;;;;;7613411;19;20019;-73
2022/11/27 06:08:54;;;;;;;16.00;9.32;;;-0.60;99.90;;;;;;7603372;19;20033;-73
2022/11/27 06:11:27;;;;;;;14.25;9.90;;;-0.60;99.90;;;;;;7596642;19;20025;-73
2022/11/27 06:13:59;;;;;;;13.73;9.13;;;-0.50;99.90;;;;;;7599830;19;20010;-73
2022/11/27 06:16:31;;;;;;;16.60;9.15;;;-0.50;99.90;;;;;;7611331;19;20512;-73
2022/11/27 06:19:03;;;;;;;16.35;9.80;;;-0.60;99.90;;;;;;7590569;19;20010;-73
2022/11/27 06:21:35;;;;;;;21.25;12.13;;;-0.60;99.90;;;;;;7579945;19;20014;-73
2022/11/27 06:24:07;;;;;;;21.30;10.23;;;-0.70;99.90;;;;;;7582321;19;20015;-73
2022/11/27 06:26:39;;;;;;;14.63;8.70;;;-0.80;99.90;;;;;;7599275;19;20021;-73
2022/11/27 06:29:11;;;;;;;16.10;9.52;;;-0.80;99.90;;;;;;7599378;19;20029;-73
2022/11/27 06:31:43;;;;;;;15.85;9.90;;;-0.70;99.90;;;;;;7605330;19;20018;-73
2022/11/27 06:34:15;;;;;;;17.35;9.77;;;-0.70;99.90;;;;;;7594768;19;20613;-73
2022/11/27 06:36:49;;;;;;;18.73;10.07;;;-0.70;99.90;;;;;;7590086;19;20653;-73
2022/11/27 06:39:21;;;;;;;13.93;8.45;;;-0.70;99.90;;;;;;7600819;19;20275;-73
2022/11/27 06:41:53;;;;;;;17.73;10.18;;;-0.80;99.90;;;;;;7604693;19;20558;-73
2022/11/27 06:44:25;;;;;;;13.90;9.00;;;-0.70;99.90;;;;;;7611819;19;20014;-72
2022/11/27 06:46:57;;;;;;;14.18;9.32;;;-0.80;99.90;;;;;;7563446;19;20017;-73
2022/11/27 06:49:29;;;;;;;15.15;9.45;;;-0.80;99.90;;;;;;7585300;19;20038;-73
2022/11/27 06:52:01;;;;;;;13.32;8.55;;;-0.70;99.90;;;;;;7561726;19;20364;-72
2022/11/27 06:54:33;;;;;;;17.27;9.02;;;-0.70;99.90;;;;;;7572818;19;20018;-73
2022/11/27 06:57:06;;;;;;;15.82;9.02;;;-0.70;99.90;;;;;;7587690;19;20015;-74
2022/11/27 06:59:38;;;;;;;14.57;9.18;;;-0.70;99.90;;;;;;7599055;19;20026;-73
2022/11/27 07:02:14;;;;;;;14.10;8.52;;;-0.80;99.90;;;;;;7590832;19;20018;-72
2022/11/27 07:04:46;;;;;;;15.52;9.07;;;-0.90;99.90;;;;;;7583588;19;20022;-73
2022/11/27 07:07:18;;;;;;;15.75;10.18;;;-0.90;99.90;;;;;;7589947;19;20064;-73
2022/11/27 07:09:50;;;;;;;18.02;9.93;;;-0.80;99.90;;;;;;7601453;19;20025;-73
2022/11/27 07:12:22;;;;;;;15.52;9.77;;;-0.80;99.90;;;;;;7599812;19;20018;-73
2022/11/27 07:14:54;;;;;;;14.85;9.02;;;-0.70;99.90;;;;;;7598510;19;20056;-73
2022/11/27 07:17:26;;;;;;;15.57;9.60;;;-0.70;99.90;;;;;;7590067;19;20019;-73
2022/11/27 07:19:58;;;;;;;16.98;10.13;;;-0.70;99.90;;;;;;7613974;19;20018;-73
2022/11/27 07:22:33;;;;;;;19.05;9.93;;;-0.70;99.90;;;;;;7591611;19;20023;-73
2022/11/27 07:25:06;;;;;;;18.13;9.77;;;-0.60;99.90;;;;;;7576136;19;20029;-73
2022/11/27 07:27:38;;;;;;;20.95;11.50;;;-0.70;99.90;;;;;;7583025;19;20546;-73
2022/11/27 07:30:10;;;;;;;17.95;10.45;;;-0.60;99.90;;;;;;7580256;19;20021;-73
2022/11/27 07:32:42;;;;;;;20.17;11.70;;;-0.60;99.90;;;;;;7589508;19;20379;-73
2022/11/27 07:35:14;;;;;;;20.88;11.80;;;-0.50;99.90;;;;;;7574240;19;20835;-73
2022/11/27 07:37:47;;;;;;;22.13;12.55;;;-0.50;99.90;;;;;;7582690;19;21128;-73
2022/11/27 07:40:19;;;;;;;19.13;12.13;;;-0.50;99.90;;;;;;7580313;19;20034;-73
2022/11/27 07:42:51;;;;;;;21.55;12.57;;;-0.40;99.90;;;;;;7564823;19;20785;-72
2022/11/27 07:45:23;;;;;;;22.50;12.73;;;-0.40;99.90;;;;;;7550364;19;20541;-72
2022/11/27 07:47:55;;;;;;;20.52;11.65;;;-0.40;99.90;;;;;;7566201;19;20018;-72
2022/11/27 07:50:27;;;;;;;24.00;14.07;;;-0.30;99.90;;;;;;7587974;19;20031;-73
2022/11/27 07:52:59;;;;;;;23.85;13.02;;;-0.20;99.90;;;;;;7585120;19;20048;-73
2022/11/27 07:55:31;;;;;;;28.17;13.85;;;-0.20;99.90;;;;;;7571374;19;20018;-73
2022/11/27 07:58:04;;;;;;;24.52;14.32;;;-0.10;99.90;;;;;;7568386;19;20006;-70
2022/11/27 08:00:36;;;;;;;25.85;13.77;;;-0.10;99.90;;;;;;7576376;19;20023;-70
2022/11/27 08:03:09;;;;;;;29.38;15.60;;;0.00;99.90;;;;;;7596658;19;20015;-73
2022/11/27 08:05:41;;;;;;;25.65;13.82;;;0.00;99.90;;;;;;7566461;19;20033;-74
2022/11/27 08:08:13;;;;;;;28.92;15.00;;;0.10;99.90;;;;;;7560263;19;20026;-72
2022/11/27 08:10:45;;;;;;;28.38;14.77;;;0.10;99.90;;;;;;7577418;19;20026;-73
2022/11/27 08:13:18;;;;;;;25.02;14.40;;;0.20;99.90;;;;;;7560659;19;20021;-73
2022/11/27 08:15:50;;;;;;;29.73;15.10;;;0.20;99.90;;;;;;7567146;19;20867;-72
2022/11/27 08:18:22;;;;;;;26.08;14.90;;;0.30;99.90;;;;;;7566119;19;20025;-73
2022/11/27 08:20:54;;;;;;;27.80;14.65;;;0.40;99.90;;;;;;7585407;19;20074;-73
2022/11/27 08:23:26;;;;;;;29.13;14.60;;;0.50;99.90;;;;;;7566757;19;20021;-74
2022/11/27 08:25:58;;;;;;;23.50;14.15;;;0.60;99.90;;;;;;7584867;19;20014;-74
2022/11/27 08:28:30;;;;;;;23.90;13.60;;;0.60;99.90;;;;;;7592132;19;20018;-74
2022/11/27 08:31:05;;;;;;;24.98;14.38;;;0.70;99.90;;;;;;7582706;19;20729;-73
2022/11/27 08:33:37;;;;;;;31.10;15.40;;;0.70;99.90;;;;;;7590767;19;20552;-71
2022/11/27 08:36:09;;;;;;;26.65;15.13;;;0.80;99.90;;;;;;7590495;19;20019;-73
2022/11/27 08:38:48;;;;;;;27.67;15.75;;;0.80;99.90;;;;;;7595949;19;20022;-74
2022/11/27 08:41:21;;;;;;;27.52;15.02;;;0.90;99.90;;;;;;7575000;19;20022;-74
2022/11/27 08:43:53;;;;;;;24.33;15.90;;;1.00;99.90;;;;;;7556030;19;21089;-71
2022/11/27 08:46:25;;;;;;;24.50;14.88;;;1.10;99.90;;;;;;7568485;19;20086;-74
2022/11/27 08:48:58;;;;;;;24.50;14.15;;;1.10;99.90;;;;;;7567233;19;20019;-74
2022/11/27 08:51:30;;;;;;;24.67;14.40;;;1.40;99.90;;;;;;7565807;19;20074;-74
2022/11/27 08:54:03;;;;;;;28.73;14.55;;;1.80;99.90;;;;;;7583426;19;20018;-74
2022/11/27 08:56:35;;;;;;;25.87;15.10;;;1.70;99.90;;;;;;7580967;19;20015;-74
2022/11/27 08:59:07;;;;;;;22.38;13.57;;;1.60;99.90;;;;;;7560443;19;20278;-74
2022/11/27 09:01:39;;;;;;;23.88;13.77;;;1.60;99.90;;;;;;7581783;19;20010;-74
2022/11/27 09:04:11;;;;;;;24.08;13.48;;;1.60;99.90;;;;;;7584559;19;20006;-72
2022/11/27 09:06:44;;;;;;;22.73;13.20;;;1.50;99.90;;;;;;7598023;19;20025;-74
2022/11/27 09:09:16;;;;;;;19.55;11.90;;;1.60;99.90;;;;;;7597894;19;20026;-74
2022/11/27 09:11:48;;;;;;;21.85;13.63;;;1.60;99.90;;;;;;7589910;19;20014;-74
2022/11/27 09:14:20;;;;;;;21.73;13.07;;;1.80;99.90;;;;;;7548731;19;20134;-74
2022/11/27 09:16:53;;;;;;;19.45;12.27;;;1.70;99.90;;;;;;7533739;19;20022;-74
2022/11/27 09:19:25;;;;;;;23.65;11.57;;;1.70;99.90;;;;;;7571973;19;20650;-73
2022/11/27 09:21:58;;;;;;;22.00;12.50;;;1.70;99.90;;;;;;7573682;19;20021;-73
2022/11/27 09:24:30;;;;;;;20.53;11.87;;;1.80;99.90;;;;;;7594502;19;20015;-73
2022/11/27 09:27:02;;;;;;;20.10;12.32;;;1.80;99.90;;;;;;7600846;19;20495;-73
2022/11/27 09:29:34;;;;;;;23.65;11.90;;;1.90;99.90;;;;;;7539493;19;20041;-73
2022/11/27 09:32:06;;;;;;;22.52;12.75;;;1.90;99.90;;;;;;7558292;19;21166;-72
2022/11/27 09:34:39;;;;;;;18.45;11.52;;;1.90;99.90;;;;;;7558723;19;20030;-72
2022/11/27 09:37:12;;;;;;;18.70;11.70;;;2.00;99.90;;;;;;7589912;19;20011;-72
2022/11/27 09:39:44;;;;;;;23.43;11.67;;;2.10;99.90;;;;;;7575883;19;21586;-72
2022/11/27 09:42:36;;;;;;;17.77;11.05;;;2.10;99.90;;;;;;7581771;19;20914;-72
2022/11/27 09:45:14;;;;;;;18.98;10.68;;;2.20;99.90;;;;;;7578526;19;20021;-72
2022/11/27 09:47:53;;;;;;;16.98;10.15;;;2.20;99.90;;;;;;7589576;19;20011;-71
2022/11/27 09:50:29;;;;;;;18.45;10.73;;;2.30;99.90;;;;;;7582756;19;20030;-72
2022/11/27 09:53:20;;;;;;;18.90;10.98;;;2.30;99.90;;;;;;7596111;19;20060;-73
2022/11/27 09:55:55;;;;;;;18.23;11.02;;;2.30;99.90;;;;;;7596753;19;20018;-73
2022/11/27 09:58:41;;;;;;;17.13;10.48;;;2.40;99.90;;;;;;7586003;19;20015;-75
2022/11/27 10:01:22;;;;;;;17.40;10.10;;;2.40;99.90;;;;;;7582370;19;20495;-76
2022/11/27 10:04:03;;;;;;;20.00;11.02;;;2.50;99.90;;;;;;7583862;19;20653;-73
2022/11/27 10:06:35;;;;;;;20.75;11.38;;;2.60;99.90;;;;;;7589226;19;20085;-72
2022/11/27 10:09:32;;;;;;;15.43;9.98;;;2.60;99.90;;;;;;7571973;19;20097;-72
2022/11/27 10:12:09;;;;;;;13.63;9.05;;;2.80;99.90;;;;;;7568074;19;20009;-73
2022/11/27 10:14:56;;;;;;;15.10;9.55;;;2.80;99.90;;;;;;7580748;19;20762;-72
2022/11/27 10:17:38;;;;;;;14.38;9.63;;;2.80;99.90;;;;;;7566879;19;20010;-72
2022/11/27 10:20:27;;;;;;;17.05;8.82;;;2.90;99.90;;;;;;7588233;19;21356;-72
2022/11/27 10:23:13;;;;;;;15.38;9.43;;;3.10;99.90;;;;;;7567968;19;20125;-72
2022/11/27 10:25:57;;;;;;;14.23;9.40;;;3.30;99.90;;;;;;7578375;19;20018;-72
2022/11/27 10:28:41;;;;;;;15.55;9.30;;;3.20;99.90;;;;;;7574870;19;20006;-72
2022/11/27 10:31:42;;;;;;;16.73;9.15;;;3.20;99.90;;;;;;7583326;19;20025;-72
2022/11/27 10:34:50;;;;;;;14.13;8.73;;;3.40;99.90;;;;;;7595030;19;20026;-72
2022/11/27 10:37:59;;;;;;;13.52;8.45;;;3.50;99.90;;;;;;7589729;19;20834;-72
2022/11/27 10:41:06;;;;;;;11.57;8.27;;;3.60;99.90;;;;;;7594543;19;20017;-72
2022/11/27 10:43:40;;;;;;;13.75;9.13;;;3.70;99.90;;;;;;7584603;19;20018;-74
2022/11/27 10:46:38;;;;;;;13.68;8.02;;;3.80;99.90;;;;;;7590687;19;20575;-74
2022/11/27 10:49:10;;;;;;;13.88;7.13;;;3.80;99.90;;;;;;7586000;19;20533;-74
2022/11/27 10:51:42;;;;;;;13.63;8.25;;;4.00;99.90;;;;;;7587193;19;20025;-74
2022/11/27 10:54:33;;;;;;;12.52;8.30;;;4.10;99.90;;;;;;7588516;19;20026;-73
2022/11/27 10:57:16;;;;;;;11.85;7.97;;;4.20;99.90;;;;;;7563469;19;20029;-72
2022/11/27 11:00:13;;;;;;;11.53;7.77;;;4.30;99.90;;;;;;7579150;19;20052;-72
2022/11/27 11:02:46;;;;;;;10.75;7.65;;;4.40;99.90;;;;;;7576828;19;20010;-74
2022/11/27 11:05:24;;;;;;;11.90;7.80;;;4.40;99.90;;;;;;7582472;19;20582;-71
2022/11/27 11:08:18;;;;;;;12.40;7.82;;;4.40;99.90;;;;;;7582076;19;20014;-71
2022/11/27 11:10:51;;;;;;;13.50;7.93;;;4.50;99.90;;;;;;7577779;19;20015;-74
2022/11/27 11:13:31;;;;;;;11.90;7.40;;;4.60;99.90;;;;;;7565890;19;20240;-71
2022/11/27 11:16:17;;;;;;;10.60;7.35;;;4.50;99.90;;;;;;7572888;19;20090;-73
2022/11/27 11:18:56;;;;;;;12.23;7.05;;;4.60;99.90;;;;;;7588948;19;20022;-76
2022/11/27 11:21:37;;;;;;;10.38;6.88;;;4.80;99.90;;;;;;7593832;19;20077;-73
2022/11/27 11:24:22;;;;;;;12.15;7.22;;;4.70;99.90;;;;;;7540099;19;20022;-74
2022/11/27 11:26:57;;;;;;;10.02;7.13;;;4.90;99.90;;;;;;7556418;19;20065;-74
2022/11/27 11:29:33;;;;;;;9.85;6.40;;;5.70;99.90;;;;;;7590297;19;20013;-72
2022/11/27 11:32:15;;;;;;;11.00;6.22;;;6.30;99.90;;;;;;7557903;19;20014;-71
2022/11/27 11:34:56;;;;;;;9.05;6.53;;;6.60;99.90;;;;;;7563770;19;20027;-74
2022/11/27 11:37:35;;;;;;;9.35;6.68;;;7.30;99.90;;;;;;7581634;19;20026;-74
2022/11/27 11:40:22;;;;;;;9.60;7.13;;;7.70;99.90;;;;;;7596726;19;20014;-72
2022/11/27 11:43:01;;;;;;;10.68;5.95;;;9.00;95.30;;;;;;7584672;19;20014;-72
2022/11/27 11:45:34;;;;;;;9.70;7.20;;;8.50;94.50;;;;;;7558123;19;20018;-72
2022/11/27 11:48:22;;;;;;;7.97;5.95;;;10.40;91.20;;;;;;7549100;19;20025;-72
2022/11/27 11:51:03;;;;;;;8.73;5.80;;;9.10;89.70;;;;;;7568657;19;20505;-71
2022/11/27 11:53:38;;;;;;;8.30;5.63;;;8.60;91.70;;;;;;7569881;19;20021;-71
2022/11/27 11:56:37;;;;;;;6.20;4.90;;;8.00;92.40;;;;;;7554880;19;20011;-71
2022/11/27 11:59:18;;;;;;;6.25;4.30;;;7.30;93.10;;;;;;7573578;19;20363;-73
2022/11/27 12:02:12;;;;;;;7.10;5.05;;;6.90;94.00;;;;;;7566748;19;20014;-71
2022/11/27 12:04:55;;;;;;;;;;;6.80;95.20;;;;;;7555881;19;20025;-71
2022/11/27 12:07:33;;;;;;;8.98;5.53;;;6.70;95.80;;;;;;7560610;19;19922;-71
2022/11/27 12:10:15;;;;;;;9.48;6.07;;;6.70;96.40;;;;;;7580092;19;20021;-71
2022/11/27 12:12:59;;;;;;;10.27;5.82;;;7.10;95.50;;;;;;7543583;19;22147;-71
2022/11/27 12:15:41;;;;;;;;;;;7.20;94.30;;;;;;7539052;19;20101;-71
2022/11/27 12:18:41;;;;;;;9.73;6.07;;;6.70;95.60;;;;;;7556425;19;19915;-72
2022/11/27 12:21:33;;;;;;;8.45;5.85;;;6.40;96.80;;;;;;7572042;19;20011;-71
2022/11/27 12:24:31;;;;;;;9.18;6.20;;;6.30;97.90;;;;;;7575265;19;20014;-74
2022/11/27 12:27:17;;;;;;;8.50;5.18;;;6.50;98.00;;;;;;7592759;19;20014;-71
2022/11/27 12:30:04;;;;;;;11.32;5.82;;;6.50;98.20;;;;;;7562885;19;20010;-71
2022/11/27 12:33:03;;;;;;;8.55;6.00;;;6.30;99.40;;;;;;7571002;19;20018;-71
2022/11/27 12:35:41;;;;;;;8.68;6.30;;;6.50;99.90;;;;;;7561279;19;20010;-71
2022/11/27 12:38:28;;;;;;;8.25;5.32;;;6.70;98.20;;;;;;7530164;19;20035;-71
2022/11/27 12:41:14;;;;;;;7.03;4.57;;;6.80;95.80;;;;;;7557410;19;20011;-71
2022/11/27 12:43:54;;;;;;;6.85;4.80;;;6.50;95.50;;;;;;7563219;19;20014;-71
2022/11/27 12:46:45;;;;;;;8.13;4.82;;;6.40;95.00;;;;;;7537708;19;24111;-72
2022/11/27 12:50:54;;;;;;;8.23;4.40;;;7.40;95.30;;;;;;7596014;19;21157;-72
2022/11/27 12:53:42;;;;;;;6.60;4.22;;;7.50;93.50;;;;;;7609402;19;20316;-72
2022/11/27 12:56:23;;;;;;;6.90;5.15;;;7.20;94.20;;;;;;7594763;19;20460;-73
2022/11/27 12:59:07;;;;;;;6.88;5.32;;;7.30;93.20;;;;;;7570785;19;20077;-72
2022/11/27 13:01:46;;;;;;;7.35;4.80;;;9.20;90.00;;;;;;7581406;19;20050;-72
2022/11/27 13:04:44;;;;;;;13.73;7.63;;;8.90;86.60;;;;;;7603359;19;20017;-72
2022/11/27 13:07:26;;;;;;;12.52;9.25;;;8.50;92.30;;;;;;7609829;19;20018;-72
2022/11/27 13:10:25;;;;;;;16.88;10.57;;;7.80;95.50;;;;;;7609915;19;20018;-72
2022/11/27 13:13:12;;;;;;;12.10;8.85;;;7.30;98.20;;;;;;7630566;19;20021;-71
2022/11/27 13:15:48;;;;;;;10.65;6.85;;;6.90;99.90;;;;;;7624975;19;20010;-71
2022/11/27 13:18:40;;;;;;;10.77;7.43;;;6.60;99.90;;;;;;7628899;19;20320;-73
2022/11/27 13:21:21;;;;;;;15.35;8.20;;;6.70;99.90;;;;;;7617403;19;20010;-73
2022/11/27 13:23:54;;;;;;;11.30;7.85;;;6.90;99.90;;;;;;7603896;19;20010;-73
2022/11/27 13:26:45;;;;;;;9.57;6.80;;;7.10;99.90;;;;;;7618325;19;20014;-71
2022/11/27 13:29:32;;;;;;;11.90;8.00;;;7.00;99.90;;;;;;7602008;19;20324;-73
2022/11/27 13:32:06;;;;;;;11.52;7.85;;;6.90;99.90;;;;;;7616748;19;20049;-71
2022/11/27 13:34:45;;;;;;;11.15;7.30;;;7.20;99.90;;;;;;7609096;19;20021;-71